Time;durP1;ratioP1;P1;durP2;ratioP2;P2;SDS_P1;SDS_P2;PMS_P1;PMS_P2;Temp;Humidity;BMP_temperature;BMP_pressure;BME280_temperature;BME280_humidity;BME280_pressure;Samples;Min_cycle;Max_cycle;Signal;HPM_P1;HPM_P2
2023/10/21 00:01:57;;;;;;;2.20;2.00;;;13.60;99.90;;;;;;5012323;28;20175;-72
2023/10/21 00:04:23;;;;;;;4.93;3.43;;;13.60;99.90;;;;;;5012706;28;20230;-73
2023/10/21 00:06:49;;;;;;;2.53;2.27;;;13.60;99.90;;;;;;5012560;28;20192;-72
2023/10/21 00:09:15;;;;;;;2.40;2.20;;;13.60;99.90;;;;;;5027982;28;20200;-72
2023/10/21 00:11:40;;;;;;;2.90;2.20;;;13.60;99.90;;;;;;5011269;28;20173;-72
2023/10/21 00:14:08;;;;;;;1.90;1.80;;;13.70;99.90;;;;;;5012623;28;20666;-72
2023/10/21 00:16:33;;;;;;;4.10;1.93;;;13.70;99.90;;;;;;5027558;28;20195;-72
2023/10/21 00:18:59;;;;;;;2.60;2.10;;;13.70;99.90;;;;;;5012327;28;20910;-72
2023/10/21 00:21:25;;;;;;;2.17;2.07;;;13.70;99.90;;;;;;5012243;28;20266;-73
2023/10/21 00:23:50;;;;;;;1.93;1.83;;;13.70;99.90;;;;;;5012427;28;20175;-73
2023/10/21 00:26:16;;;;;;;2.30;2.10;;;13.70;99.90;;;;;;5012350;28;20602;-72
2023/10/21 00:28:42;;;;;;;2.20;2.00;;;13.70;99.90;;;;;;5011146;28;20707;-72
2023/10/21 00:31:07;;;;;;;2.43;2.23;;;13.70;99.90;;;;;;5012139;28;20407;-72
2023/10/21 00:33:33;;;;;;;6.00;2.30;;;13.70;99.90;;;;;;5012246;28;20168;-72
2023/10/21 00:35:59;;;;;;;2.80;2.30;;;13.80;99.90;;;;;;5012047;28;20176;-72
2023/10/21 00:38:25;;;;;;;2.57;2.37;;;13.80;99.90;;;;;;5012240;28;20168;-72
2023/10/21 00:40:55;;;;;;;4.37;2.10;;;13.80;99.90;;;;;;5012104;28;20199;-72
2023/10/21 00:43:33;;;;;;;1.90;1.80;;;13.80;99.90;;;;;;5012112;28;20516;-72
2023/10/21 00:46:15;;;;;;;2.47;1.87;;;13.80;99.90;;;;;;5012007;28;20413;-72
2023/10/21 00:48:41;;;;;;;4.20;2.20;;;13.80;99.90;;;;;;5010754;28;20462;-72
2023/10/21 00:51:09;;;;;;;2.10;1.90;;;13.70;99.90;;;;;;5011911;28;20767;-72
2023/10/21 00:53:36;;;;;;;3.07;2.47;;;13.80;99.90;;;;;;5011008;28;20386;-72
2023/10/21 00:56:02;;;;;;;2.10;1.90;;;13.70;99.90;;;;;;5011996;28;20400;-72
2023/10/21 00:58:31;;;;;;;6.53;2.20;;;13.80;99.90;;;;;;5011938;28;20399;-72
2023/10/21 01:00:57;;;;;;;2.37;1.77;;;13.80;99.90;;;;;;5011866;28;20430;-72
2023/10/21 01:03:26;;;;;;;5.60;2.00;;;13.70;99.90;;;;;;5027112;28;20462;-72
2023/10/21 01:05:52;;;;;;;2.60;2.40;;;13.70;99.90;;;;;;5012068;28;20431;-72
2023/10/21 01:08:18;;;;;;;2.40;2.20;;;13.60;99.90;;;;;;5011824;28;21023;-72
2023/10/21 01:10:43;;;;;;;2.37;2.17;;;13.60;99.90;;;;;;5010529;28;20218;-72
2023/10/21 01:13:09;;;;;;;1.60;1.50;;;13.60;99.90;;;;;;5013668;28;20164;-73
2023/10/21 01:15:35;;;;;;;2.30;2.00;;;13.60;99.90;;;;;;5015925;28;20178;-72
2023/10/21 01:18:04;;;;;;;3.50;2.03;;;13.50;99.90;;;;;;5015683;28;20238;-72
2023/10/21 01:20:30;;;;;;;2.90;1.90;;;13.50;99.90;;;;;;5030830;28;20419;-72
2023/10/21 01:23:02;;;;;;;2.20;2.00;;;13.40;99.90;;;;;;5015662;28;20925;-72
2023/10/21 01:25:28;;;;;;;3.17;2.30;;;13.50;99.90;;;;;;5015671;28;20180;-72
2023/10/21 01:27:54;;;;;;;5.87;2.03;;;13.50;99.90;;;;;;5030646;28;20864;-72
2023/10/21 01:30:21;;;;;;;6.97;2.63;;;13.50;99.90;;;;;;5015395;28;20414;-72
2023/10/21 01:32:50;;;;;;;2.20;1.93;;;13.60;99.90;;;;;;5014207;28;20503;-73
2023/10/21 01:35:16;;;;;;;4.33;3.90;;;13.60;99.90;;;;;;5014196;28;20419;-73
2023/10/21 01:37:43;;;;;;;3.30;3.00;;;13.60;99.90;;;;;;5015232;28;20454;-73
2023/10/21 01:40:10;;;;;;;2.50;2.30;;;13.70;99.90;;;;;;5015160;28;20438;-73
2023/10/21 01:42:37;;;;;;;2.50;2.30;;;13.70;99.90;;;;;;5030574;28;20933;-73
2023/10/21 01:45:04;;;;;;;3.80;3.13;;;13.70;99.90;;;;;;5015322;28;20445;-72
2023/10/21 01:47:30;;;;;;;2.37;2.17;;;13.70;99.90;;;;;;5014974;28;20431;-72
2023/10/21 01:49:57;;;;;;;2.70;2.50;;;13.70;99.90;;;;;;5015056;28;20434;-73
2023/10/21 01:52:23;;;;;;;4.83;3.07;;;13.80;99.90;;;;;;5015197;28;20434;-73
2023/10/21 01:54:49;;;;;;;2.37;2.13;;;13.90;99.90;;;;;;5015070;28;20851;-73
2023/10/21 01:57:15;;;;;;;5.20;2.67;;;13.90;99.90;;;;;;5014926;28;20427;-73
2023/10/21 01:59:41;;;;;;;2.67;2.47;;;13.90;99.90;;;;;;5014886;28;20925;-72
2023/10/21 02:02:07;;;;;;;3.20;2.50;;;13.90;99.90;;;;;;5014996;28;20176;-73
2023/10/21 02:04:33;;;;;;;3.60;2.60;;;13.80;99.90;;;;;;5014945;28;20411;-72
2023/10/21 02:06:58;;;;;;;3.30;3.00;;;13.90;99.90;;;;;;5014809;28;20275;-73
2023/10/21 02:09:24;;;;;;;3.20;2.90;;;13.90;99.90;;;;;;5014745;28;20230;-73
2023/10/21 02:11:51;;;;;;;2.47;2.27;;;13.90;99.90;;;;;;5014685;28;20169;-73
2023/10/21 02:14:17;;;;;;;3.13;2.73;;;13.90;99.90;;;;;;5014995;28;20172;-73
2023/10/21 02:16:42;;;;;;;3.00;2.43;;;13.90;99.90;;;;;;5014610;28;20423;-73
2023/10/21 02:19:08;;;;;;;3.43;3.10;;;13.90;99.90;;;;;;5014678;28;20190;-72
2023/10/21 02:21:33;;;;;;;9.77;5.97;;;14.00;99.90;;;;;;5014503;28;20595;-73
2023/10/21 02:23:59;;;;;;;4.23;2.70;;;13.90;99.90;;;;;;5014140;28;20173;-73
2023/10/21 02:26:24;;;;;;;2.33;2.13;;;13.80;99.90;;;;;;5014469;28;20203;-73
2023/10/21 02:28:50;;;;;;;2.53;2.33;;;13.80;99.90;;;;;;5014464;28;20204;-73
2023/10/21 02:31:16;;;;;;;3.00;1.80;;;13.80;99.90;;;;;;5014279;28;20164;-73
2023/10/21 02:33:41;;;;;;;2.37;2.17;;;13.80;99.90;;;;;;5014404;28;20503;-73
2023/10/21 02:36:08;;;;;;;2.57;2.20;;;13.80;99.90;;;;;;5014257;28;20216;-72
2023/10/21 02:38:34;;;;;;;2.43;2.03;;;13.80;99.90;;;;;;5014168;28;20164;-73
2023/10/21 02:40:59;;;;;;;2.80;2.07;;;13.80;99.90;;;;;;5014084;28;20411;-72
2023/10/21 02:43:25;;;;;;;2.20;2.00;;;13.70;99.90;;;;;;5014169;28;20168;-73
2023/10/21 02:45:50;;;;;;;3.93;1.87;;;13.80;99.90;;;;;;5029351;28;20172;-74
2023/10/21 02:48:16;;;;;;;2.00;1.83;;;13.80;99.90;;;;;;5029339;28;20283;-72
2023/10/21 02:50:41;;;;;;;1.60;1.50;;;13.80;99.90;;;;;;5029167;28;20176;-73
2023/10/21 02:53:07;;;;;;;2.37;2.17;;;13.80;99.90;;;;;;5029164;28;20296;-73
2023/10/21 02:55:32;;;;;;;2.80;1.90;;;13.80;99.90;;;;;;5029725;28;20705;-72
2023/10/21 02:57:58;;;;;;;1.30;1.20;;;13.80;99.90;;;;;;5013797;28;20215;-73
2023/10/21 03:00:23;;;;;;;2.60;1.63;;;13.80;99.90;;;;;;5013710;28;20196;-73
2023/10/21 03:02:49;;;;;;;2.27;1.63;;;13.90;99.90;;;;;;5029211;28;20172;-73
2023/10/21 03:05:16;;;;;;;3.70;2.10;;;13.80;99.90;;;;;;5013803;28;20192;-73
2023/10/21 03:07:43;;;;;;;4.10;1.80;;;13.80;99.90;;;;;;5013476;28;20227;-72
2023/10/21 03:10:08;;;;;;;1.60;1.50;;;13.80;99.90;;;;;;5013576;28;20407;-72
2023/10/21 03:12:34;;;;;;;1.70;1.60;;;13.80;99.90;;;;;;5028868;28;20423;-72
2023/10/21 03:15:00;;;;;;;2.00;1.90;;;13.90;99.90;;;;;;5013680;28;20407;-72
2023/10/21 03:17:26;;;;;;;2.87;1.80;;;13.90;99.90;;;;;;5013367;28;20184;-72
2023/10/21 03:19:54;;;;;;;6.30;4.30;;;13.90;99.90;;;;;;5013349;28;20157;-73
2023/10/21 03:22:20;;;;;;;2.73;2.00;;;13.90;99.90;;;;;;5013403;28;20411;-72
2023/10/21 03:24:46;;;;;;;1.77;1.57;;;13.90;99.90;;;;;;5013502;28;20401;-72
2023/10/21 03:27:13;;;;;;;1.70;1.60;;;13.90;99.90;;;;;;5012001;28;20506;-72
2023/10/21 03:29:39;;;;;;;2.20;2.00;;;13.90;99.90;;;;;;5013183;28;20195;-72
2023/10/21 03:32:05;;;;;;;1.73;1.63;;;13.90;99.90;;;;;;5013331;28;20910;-72
2023/10/21 03:34:33;;;;;;;1.47;1.37;;;13.90;99.90;;;;;;5012999;28;20453;-72
2023/10/21 03:36:59;;;;;;;1.60;1.50;;;13.80;99.90;;;;;;5012712;28;20479;-72
2023/10/21 03:39:26;;;;;;;1.80;1.70;;;13.90;99.90;;;;;;5013131;28;20465;-73
2023/10/21 03:41:52;;;;;;;1.70;1.60;;;13.80;99.90;;;;;;5013095;28;20457;-73
2023/10/21 03:44:17;;;;;;;2.90;1.83;;;13.90;99.90;;;;;;5013013;28;20910;-72
2023/10/21 03:46:43;;;;;;;3.30;1.70;;;13.90;99.90;;;;;;5012889;28;20188;-72
2023/10/21 03:49:09;;;;;;;2.03;1.60;;;13.90;99.90;;;;;;5012951;28;20196;-72
2023/10/21 03:51:34;;;;;;;3.10;1.80;;;13.90;99.90;;;;;;5027940;28;20635;-72
2023/10/21 03:54:01;;;;;;;1.97;1.43;;;13.90;99.90;;;;;;5013023;28;20586;-72
2023/10/21 03:56:27;;;;;;;3.80;2.13;;;13.90;99.90;;;;;;5012774;28;20551;-73
2023/10/21 03:58:53;;;;;;;5.80;2.47;;;13.90;99.90;;;;;;5012831;28;20415;-73
2023/10/21 04:01:20;;;;;;;3.03;1.67;;;14.00;99.90;;;;;;5012543;28;20179;-73
2023/10/21 04:03:46;;;;;;;1.97;1.80;;;14.00;99.90;;;;;;5012699;28;20251;-73
2023/10/21 04:06:13;;;;;;;1.90;1.80;;;14.00;99.90;;;;;;5011375;28;20934;-73
2023/10/21 04:08:39;;;;;;;2.40;2.10;;;13.90;99.90;;;;;;5012527;28;20447;-73
2023/10/21 04:11:05;;;;;;;1.77;1.67;;;14.00;99.90;;;;;;5011256;28;20454;-72
2023/10/21 04:13:31;;;;;;;1.77;1.63;;;14.00;99.90;;;;;;5011433;28;20196;-72
2023/10/21 04:15:57;;;;;;;1.93;1.83;;;14.00;99.90;;;;;;5012949;28;20457;-72
2023/10/21 04:18:23;;;;;;;4.43;1.90;;;14.10;99.90;;;;;;5012411;28;20667;-72
2023/10/21 04:20:48;;;;;;;3.53;1.70;;;14.10;99.90;;;;;;5012375;28;20450;-73
2023/10/21 04:23:14;;;;;;;1.83;1.73;;;14.10;99.90;;;;;;5012536;28;20275;-72
2023/10/21 04:25:40;;;;;;;1.73;1.63;;;14.10;99.90;;;;;;5012580;28;20636;-72
2023/10/21 04:28:05;;;;;;;2.10;1.90;;;14.10;99.90;;;;;;5027623;28;20299;-72
2023/10/21 04:30:31;;;;;;;3.00;2.00;;;14.10;99.90;;;;;;5012363;28;20203;-72
2023/10/21 04:32:57;;;;;;;3.27;2.60;;;14.00;99.90;;;;;;5027737;28;20168;-72
2023/10/21 04:35:22;;;;;;;2.40;2.00;;;14.00;99.90;;;;;;5011121;28;20164;-72
2023/10/21 04:37:48;;;;;;;1.40;1.30;;;13.90;99.90;;;;;;5012639;28;20202;-72
2023/10/21 04:40:14;;;;;;;2.60;1.67;;;13.80;99.90;;;;;;5012432;28;20168;-72
2023/10/21 04:42:40;;;;;;;4.43;1.97;;;13.70;99.90;;;;;;5012550;28;20169;-72
2023/10/21 04:45:09;;;;;;;2.00;1.60;;;13.60;99.90;;;;;;5012456;28;20410;-72
2023/10/21 04:47:35;;;;;;;1.93;1.60;;;13.50;99.90;;;;;;5011971;28;20192;-72
2023/10/21 04:50:00;;;;;;;2.37;1.60;;;13.40;99.90;;;;;;5012155;28;20556;-72
2023/10/21 04:52:26;;;;;;;2.87;1.83;;;13.40;99.90;;;;;;5027387;28;20843;-72
2023/10/21 04:54:51;;;;;;;1.60;1.50;;;13.30;99.90;;;;;;5012289;28;20239;-72
2023/10/21 04:57:17;;;;;;;1.70;1.53;;;13.30;99.90;;;;;;5011903;28;20195;-72
2023/10/21 04:59:43;;;;;;;1.87;1.50;;;13.30;99.90;;;;;;5011848;28;20172;-72
2023/10/21 05:02:08;;;;;;;1.53;1.43;;;13.30;99.90;;;;;;5012005;28;20206;-72
2023/10/21 05:04:37;;;;;;;2.63;1.03;;;13.20;99.90;;;;;;5010816;28;20259;-72
2023/10/21 05:07:02;;;;;;;1.50;1.10;;;13.20;99.90;;;;;;5011883;28;20203;-72
2023/10/21 05:09:29;;;;;;;2.00;1.33;;;13.30;99.90;;;;;;5010635;28;20825;-72
2023/10/21 05:11:54;;;;;;;1.20;1.07;;;13.30;99.90;;;;;;5012065;28;20169;-72
2023/10/21 05:14:20;;;;;;;1.23;1.13;;;13.20;99.90;;;;;;5027175;28;20403;-72
2023/10/21 05:16:46;;;;;;;1.37;1.23;;;13.20;99.90;;;;;;5011747;28;20239;-72
2023/10/21 05:19:11;;;;;;;6.07;1.60;;;13.20;99.90;;;;;;5027082;28;20203;-72
2023/10/21 05:21:37;;;;;;;1.00;0.90;;;13.10;99.90;;;;;;5011641;28;20582;-72
2023/10/21 05:24:03;;;;;;;1.37;1.27;;;13.20;99.90;;;;;;5011876;28;20717;-72
2023/10/21 05:26:29;;;;;;;1.40;1.27;;;13.10;99.90;;;;;;5011591;28;20327;-72
2023/10/21 05:28:55;;;;;;;2.87;1.13;;;13.10;99.90;;;;;;5011698;28;20443;-72
2023/10/21 05:31:21;;;;;;;3.00;2.63;;;13.20;99.90;;;;;;5026962;28;20416;-72
2023/10/21 05:33:47;;;;;;;2.07;1.87;;;13.20;99.90;;;;;;5011737;28;20251;-72
2023/10/21 05:36:13;;;;;;;1.13;1.03;;;13.20;99.90;;;;;;5011505;28;20918;-72
2023/10/21 05:38:38;;;;;;;1.40;1.30;;;13.20;99.90;;;;;;5011642;28;20699;-72
2023/10/21 05:41:04;;;;;;;1.10;1.00;;;13.20;99.90;;;;;;5011580;28;20499;-73
2023/10/21 05:43:29;;;;;;;2.00;1.30;;;13.20;99.90;;;;;;5010419;28;20226;-72
2023/10/21 05:45:55;;;;;;;1.50;1.23;;;13.20;99.90;;;;;;5011596;28;20176;-72
2023/10/21 05:48:20;;;;;;;1.67;0.90;;;13.20;99.90;;;;;;5011632;28;20208;-72
2023/10/21 05:50:47;;;;;;;4.60;1.60;;;13.20;99.90;;;;;;5026571;28;20218;-72
2023/10/21 05:53:12;;;;;;;1.53;1.10;;;13.20;99.90;;;;;;5026885;28;20215;-72
2023/10/21 05:55:42;;;;;;;1.40;1.30;;;13.30;99.90;;;;;;5011578;28;20403;-72
2023/10/21 05:58:09;;;;;;;1.30;1.20;;;13.30;99.90;;;;;;5026830;28;20199;-72
2023/10/21 06:00:35;;;;;;;4.73;1.47;;;13.40;99.90;;;;;;5014806;28;20415;-73
2023/10/21 06:03:01;;;;;;;1.60;1.50;;;13.30;99.90;;;;;;5015046;28;20407;-72
2023/10/21 06:05:27;;;;;;;1.20;1.10;;;13.40;99.90;;;;;;5015161;28;20418;-72
2023/10/21 06:07:53;;;;;;;1.50;1.40;;;13.40;99.90;;;;;;5013496;28;20454;-72
2023/10/21 06:10:20;;;;;;;1.80;1.70;;;13.40;99.90;;;;;;5014658;28;20639;-72
2023/10/21 06:12:46;;;;;;;2.13;2.00;;;13.40;99.90;;;;;;5014705;28;20156;-72
2023/10/21 06:15:11;;;;;;;5.43;2.57;;;13.30;99.90;;;;;;5014697;28;20404;-72
2023/10/21 06:17:37;;;;;;;5.90;4.70;;;13.30;99.90;;;;;;5014540;28;20485;-72
2023/10/21 06:20:03;;;;;;;12.20;8.10;;;13.30;99.90;;;;;;5014557;28;20754;-72
2023/10/21 06:22:29;;;;;;;8.20;3.70;;;13.40;99.90;;;;;;5014637;28;20211;-72
2023/10/21 06:24:54;;;;;;;3.87;2.60;;;13.40;99.90;;;;;;5014611;28;20439;-73
2023/10/21 06:27:21;;;;;;;2.60;2.40;;;13.40;99.90;;;;;;5014384;28;20279;-72
2023/10/21 06:29:46;;;;;;;2.60;2.40;;;13.50;99.90;;;;;;5014170;28;20242;-71
2023/10/21 06:32:12;;;;;;;2.57;2.37;;;13.60;99.90;;;;;;5014467;28;20997;-72
2023/10/21 06:34:37;;;;;;;2.40;2.20;;;13.70;99.90;;;;;;5014585;28;20169;-72
2023/10/21 06:37:03;;;;;;;1.63;1.53;;;13.70;99.90;;;;;;5014189;28;20208;-72
2023/10/21 06:39:29;;;;;;;2.20;2.00;;;13.70;99.90;;;;;;5014132;28;20651;-73
2023/10/21 06:41:55;;;;;;;1.70;1.27;;;13.70;99.90;;;;;;5014205;28;20161;-72
2023/10/21 06:44:20;;;;;;;5.43;1.03;;;13.60;99.90;;;;;;5014201;28;20415;-72
2023/10/21 06:46:46;;;;;;;1.03;0.93;;;13.70;99.90;;;;;;5014040;28;20187;-72
2023/10/21 06:49:12;;;;;;;6.20;1.10;;;13.80;99.90;;;;;;5014112;28;20567;-72
2023/10/21 06:51:38;;;;;;;0.83;0.73;;;13.90;99.90;;;;;;5014054;28;20403;-72
2023/10/21 06:54:05;;;;;;;1.53;0.90;;;14.00;99.90;;;;;;5014262;28;20176;-72
2023/10/21 06:56:31;;;;;;;1.43;0.97;;;14.10;99.90;;;;;;5013715;28;20180;-72
2023/10/21 06:58:57;;;;;;;0.97;0.83;;;14.20;99.90;;;;;;5013782;28;20841;-73
2023/10/21 07:01:22;;;;;;;2.60;0.93;;;14.30;99.90;;;;;;5013694;28;20564;-74
2023/10/21 07:03:49;;;;;;;1.53;1.00;;;14.50;99.90;;;;;;5013979;28;20251;-74
2023/10/21 07:06:16;;;;;;;1.00;0.80;;;14.60;99.90;;;;;;5013806;28;20197;-74
2023/10/21 07:08:42;;;;;;;1.40;0.80;;;14.70;99.90;;;;;;5013733;28;20443;-73
2023/10/21 07:11:07;;;;;;;1.00;0.70;;;14.60;99.90;;;;;;5012491;28;20403;-73
2023/10/21 07:13:33;;;;;;;0.80;0.60;;;14.50;99.90;;;;;;5013662;28;20161;-73
2023/10/21 07:16:10;;;;;;;1.07;0.70;;;14.50;99.90;;;;;;5013876;28;20779;-73
2023/10/21 07:18:36;;;;;;;0.73;0.60;;;14.50;99.90;;;;;;5028813;28;20172;-73
2023/10/21 07:21:02;;;;;;;1.23;0.73;;;14.40;99.90;;;;;;5013393;28;20443;-74
2023/10/21 07:23:28;;;;;;;0.80;0.60;;;14.40;99.90;;;;;;5012243;28;20969;-73
2023/10/21 07:25:54;;;;;;;0.70;0.50;;;14.50;99.90;;;;;;5013364;28;20502;-73
2023/10/21 07:28:20;;;;;;;1.13;0.60;;;14.50;99.90;;;;;;5028578;28;20287;-74
2023/10/21 07:30:45;;;;;;;1.27;0.80;;;14.50;99.90;;;;;;5013235;28;20435;-73
2023/10/21 07:33:11;;;;;;;1.00;0.70;;;14.60;99.90;;;;;;5028907;28;20179;-74
2023/10/21 07:35:38;;;;;;;1.00;0.70;;;14.60;99.90;;;;;;5011938;28;20188;-74
2023/10/21 07:38:03;;;;;;;0.97;0.73;;;14.60;99.90;;;;;;5013641;28;20587;-74
2023/10/21 07:40:31;;;;;;;0.70;0.60;;;14.60;99.90;;;;;;5011823;28;20416;-73
2023/10/21 07:42:58;;;;;;;1.00;0.70;;;14.60;99.90;;;;;;5013184;28;20183;-72
2023/10/21 07:45:24;;;;;;;2.60;0.67;;;15.00;99.90;;;;;;5013176;28;20411;-73
2023/10/21 07:47:49;;;;;;;1.07;0.60;;;15.40;99.90;;;;;;5012997;28;20431;-74
2023/10/21 07:50:16;;;;;;;1.13;0.70;;;15.50;99.90;;;;;;5012863;28;20410;-75
2023/10/21 07:52:43;;;;;;;1.23;1.07;;;15.30;99.90;;;;;;5028187;28;20218;-73
2023/10/21 07:55:12;;;;;;;0.70;0.60;;;15.30;99.90;;;;;;5012931;28;20427;-73
2023/10/21 07:57:38;;;;;;;0.90;0.60;;;15.30;99.90;;;;;;5012807;28;20473;-73
2023/10/21 08:00:05;;;;;;;1.63;0.80;;;15.60;99.90;;;;;;5012751;28;20615;-75
2023/10/21 08:02:30;;;;;;;0.70;0.50;;;15.80;99.90;;;;;;5012798;28;20403;-71
2023/10/21 08:04:56;;;;;;;1.33;0.70;;;16.00;99.90;;;;;;5012841;28;20410;-73
2023/10/21 08:07:22;;;;;;;0.80;0.60;;;16.30;99.90;;;;;;5012648;28;20187;-72
2023/10/21 08:09:48;;;;;;;2.60;0.70;;;16.80;99.90;;;;;;5027498;28;20965;-73
2023/10/21 08:12:13;;;;;;;1.30;0.70;;;17.30;99.90;;;;;;5011780;28;20224;-72
2023/10/21 08:14:40;;;;;;;0.97;0.60;;;17.50;99.90;;;;;;5012692;28;20160;-73
2023/10/21 08:17:07;;;;;;;0.90;0.60;;;17.60;99.90;;;;;;5027718;28;20191;-73
2023/10/21 08:19:33;;;;;;;0.80;0.50;;;17.90;99.90;;;;;;5012359;28;20426;-72
2023/10/21 08:22:00;;;;;;;1.33;0.60;;;17.90;99.90;;;;;;5012194;28;20403;-72
2023/10/21 08:24:26;;;;;;;0.90;0.70;;;18.00;99.90;;;;;;5012362;28;20408;-73
2023/10/21 08:26:52;;;;;;;0.90;0.60;;;17.90;99.90;;;;;;5012585;28;20434;-71
2023/10/21 08:29:17;;;;;;;2.03;0.80;;;17.70;99.90;;;;;;5012345;28;20275;-73
2023/10/21 08:31:43;;;;;;;1.13;0.87;;;17.70;99.90;;;;;;5012273;28;20255;-72
2023/10/21 08:34:14;;;;;;;0.80;0.60;;;17.70;99.90;;;;;;5012556;28;20660;-76
2023/10/21 08:36:41;;;;;;;1.00;0.70;;;17.70;99.90;;;;;;5027616;28;20211;-72
2023/10/21 08:39:09;;;;;;;2.00;1.70;;;17.50;99.90;;;;;;5012260;28;20411;-73
2023/10/21 08:41:37;;;;;;;1.00;0.80;;;17.50;99.90;;;;;;5012021;28;20768;-71
2023/10/21 08:44:04;;;;;;;0.70;0.60;;;17.70;99.90;;;;;;5012704;28;20403;-76
2023/10/21 08:46:32;;;;;;;1.47;0.90;;;17.80;99.90;;;;;;5012292;28;20427;-74
2023/10/21 08:49:00;;;;;;;3.33;0.70;;;17.70;99.90;;;;;;5010820;28;20854;-71
2023/10/21 08:51:26;;;;;;;1.20;0.67;;;17.60;99.90;;;;;;5011882;28;20415;-72
2023/10/21 08:53:59;;;;;;;1.93;0.70;;;17.50;99.90;;;;;;5012183;28;20764;-72
2023/10/21 08:56:27;;;;;;;1.13;0.60;;;18.00;99.90;;;;;;5012053;28;20180;-70
2023/10/21 08:58:54;;;;;;;1.10;0.60;;;18.40;99.90;;;;;;5012229;28;20411;-74
2023/10/21 09:01:19;;;;;;;1.83;0.70;;;19.10;99.90;;;;;;5010934;28;20514;-73
2023/10/21 09:03:46;;;;;;;1.90;0.87;;;20.90;99.90;;;;;;5027184;28;20411;-73
2023/10/21 09:06:12;;;;;;;1.10;0.80;;;22.80;99.90;;;;;;5011954;28;20200;-72
2023/10/21 09:08:41;;;;;;;1.20;0.60;;;23.70;99.90;;;;;;5027057;28;20894;-71
2023/10/21 09:11:15;;;;;;;0.90;0.60;;;24.80;95.60;;;;;;5011801;28;20655;-73
2023/10/21 09:13:42;;;;;;;0.90;0.70;;;24.50;71.60;;;;;;5011989;28;20434;-73
2023/10/21 09:16:25;;;;;;;2.50;0.80;;;23.90;62.80;;;;;;5011812;28;20418;-72
2023/10/21 09:19:00;;;;;;;1.10;0.70;;;22.90;71.90;;;;;;5011893;28;20418;-72
2023/10/21 09:21:38;;;;;;;1.10;0.90;;;22.10;79.60;;;;;;5011801;28;20769;-72
2023/10/21 09:24:11;;;;;;;1.87;0.60;;;21.50;99.90;;;;;;5011929;28;20457;-73
2023/10/21 09:26:41;;;;;;;1.10;0.70;;;22.20;98.50;;;;;;5011800;28;20477;-72
2023/10/21 09:29:16;;;;;;;1.10;0.70;;;23.90;92.50;;;;;;5011928;28;20443;-73
2023/10/21 09:31:53;;;;;;;1.23;0.83;;;26.20;73.80;;;;;;5011859;28;20401;-70
2023/10/21 09:34:30;;;;;;;1.00;0.70;;;28.20;55.30;;;;;;5014390;28;22405;-71
2023/10/21 09:36:58;;;;;;;1.27;0.90;;;28.20;47.10;;;;;;5015243;28;20512;-71
2023/10/21 09:39:26;;;;;;;1.83;1.20;;;27.90;46.10;;;;;;5015464;28;20403;-71
2023/10/21 09:41:52;;;;;;;1.20;0.80;;;28.10;45.80;;;;;;5015225;28;20411;-70
2023/10/21 09:44:20;;;;;;;2.40;0.70;;;27.80;43.80;;;;;;5015510;28;20435;-70
2023/10/21 09:46:46;;;;;;;1.00;0.70;;;26.70;43.90;;;;;;5013939;28;20477;-70
2023/10/21 09:49:13;;;;;;;2.40;0.70;;;26.20;45.90;;;;;;5015163;28;20454;-72
2023/10/21 09:52:04;;;;;;;1.30;0.97;;;26.10;47.10;;;;;;5014950;28;20429;-71
2023/10/21 09:54:43;;;;;;;0.90;0.60;;;26.00;46.60;;;;;;5015162;28;20430;-72
2023/10/21 09:57:12;;;;;;;7.70;0.80;;;25.70;45.90;;;;;;5015132;28;21037;-71
2023/10/21 09:59:41;;;;;;;1.97;0.80;;;26.60;46.40;;;;;;5014930;28;20411;-70
2023/10/21 10:02:07;;;;;;;2.47;1.93;;;26.40;45.60;;;;;;5014944;28;20477;-71
2023/10/21 10:04:36;;;;;;;1.57;0.80;;;26.00;46.50;;;;;;5015090;28;20898;-71
2023/10/21 10:07:08;;;;;;;0.90;0.70;;;24.70;46.40;;;;;;5014788;28;20683;-70
2023/10/21 10:09:36;;;;;;;3.40;1.23;;;23.20;47.10;;;;;;5013399;28;21021;-71
2023/10/21 10:12:12;;;;;;;1.00;0.73;;;22.00;50.30;;;;;;5014841;28;20406;-70
2023/10/21 10:14:38;;;;;;;1.67;0.80;;;21.60;54.50;;;;;;5030049;28;20406;-70
2023/10/21 10:17:06;;;;;;;2.80;1.00;;;23.30;61.90;;;;;;5014849;28;21037;-71
2023/10/21 10:19:42;;;;;;;1.63;1.10;;;25.90;55.50;;;;;;5014533;28;20173;-71
2023/10/21 10:22:18;;;;;;;1.00;0.80;;;28.30;49.80;;;;;;5014613;28;20418;-71
2023/10/21 10:25:15;;;;;;;2.23;1.20;;;29.80;45.20;;;;;;5014790;28;20435;-71
2023/10/21 10:27:42;;;;;;;1.53;0.80;;;31.60;41.60;;;;;;5010149;28;20445;-72
2023/10/21 10:30:32;;;;;;;1.10;0.80;;;32.20;38.50;;;;;;5014300;28;20453;-71
2023/10/21 10:33:06;;;;;;;1.70;0.90;;;33.50;37.80;;;;;;5014482;28;20406;-72
2023/10/21 10:35:34;;;;;;;1.57;1.07;;;34.40;34.40;;;;;;5014258;28;20402;-71
2023/10/21 10:38:00;;;;;;;1.10;0.80;;;34.50;32.90;;;;;;5014337;28;20522;-71
2023/10/21 10:40:35;;;;;;;1.00;0.70;;;35.30;33.30;;;;;;5014217;28;20403;-71
2023/10/21 10:43:03;;;;;;;2.60;0.80;;;34.80;31.40;;;;;;5014259;28;20476;-71
2023/10/21 10:45:30;;;;;;;1.30;1.03;;;34.50;31.30;;;;;;5014063;28;20407;-71
2023/10/21 10:48:03;;;;;;;1.60;1.03;;;34.30;31.80;;;;;;5013855;28;20427;-72
2023/10/21 10:50:31;;;;;;;1.23;0.90;;;34.90;33.10;;;;;;5014051;28;20406;-71
2023/10/21 10:52:59;;;;;;;1.10;0.70;;;35.50;31.70;;;;;;5013994;28;20553;-72
2023/10/21 10:55:25;;;;;;;1.00;0.80;;;36.40;31.60;;;;;;5014151;28;20756;-71
2023/10/21 10:57:54;;;;;;;1.43;0.73;;;37.00;30.10;;;;;;5012761;28;20823;-71
2023/10/21 11:00:22;;;;;;;1.10;0.80;;;36.70;29.60;;;;;;5013826;28;20429;-72
2023/10/21 11:02:49;;;;;;;1.40;0.80;;;36.60;29.00;;;;;;5029030;28;20414;-71
2023/10/21 11:05:22;;;;;;;1.70;0.80;;;36.10;29.00;;;;;;5013788;28;20403;-71
2023/10/21 11:07:52;;;;;;;1.67;1.10;;;35.50;29.30;;;;;;5013687;28;20513;-71
2023/10/21 11:10:22;;;;;;;2.70;1.43;;;34.70;29.50;;;;;;5013685;28;20395;-70
2023/10/21 11:12:52;;;;;;;2.13;1.00;;;34.50;30.20;;;;;;5013690;28;20415;-71
2023/10/21 11:15:18;;;;;;;1.30;1.00;;;34.70;30.70;;;;;;5012304;28;20449;-71
2023/10/21 11:17:47;;;;;;;2.30;0.90;;;35.80;30.60;;;;;;5013476;28;20438;-71
2023/10/21 11:20:14;;;;;;;1.50;0.80;;;36.20;29.60;;;;;;5013613;28;20399;-71
2023/10/21 11:22:43;;;;;;;1.30;1.00;;;36.70;28.80;;;;;;5012349;28;20419;-70
2023/10/21 11:25:09;;;;;;;2.60;1.30;;;36.60;28.30;;;;;;5013651;28;20739;-71
2023/10/21 11:27:39;;;;;;;1.23;0.80;;;35.40;27.80;;;;;;5013364;28;20446;-70
2023/10/21 11:30:08;;;;;;;1.20;1.10;;;34.40;28.40;;;;;;5013357;28;20179;-70
2023/10/21 11:32:36;;;;;;;1.70;1.03;;;33.10;28.50;;;;;;5013381;28;20918;-71
2023/10/21 11:35:10;;;;;;;2.70;1.20;;;32.90;29.80;;;;;;5013708;28;20431;-71
2023/10/21 11:37:38;;;;;;;7.70;1.40;;;32.70;29.70;;;;;;5013069;28;20445;-70
2023/10/21 11:40:04;;;;;;;5.47;1.53;;;32.60;30.00;;;;;;5012977;28;20403;-70
2023/10/21 11:42:30;;;;;;;1.57;1.20;;;32.70;29.90;;;;;;5028348;28;20408;-70
2023/10/21 11:44:59;;;;;;;1.50;1.20;;;33.00;29.60;;;;;;5013220;28;20403;-70
2023/10/21 11:47:30;;;;;;;1.70;1.03;;;31.00;29.30;;;;;;5012983;28;20238;-70
2023/10/21 11:49:56;;;;;;;1.60;1.10;;;29.90;31.20;;;;;;5012781;28;20455;-70
2023/10/21 11:52:25;;;;;;;3.37;1.10;;;30.80;33.20;;;;;;5012988;28;20535;-72
2023/10/21 12:18:59;;;;;;;1.53;1.00;;;26.80;35.70;;;;;;5012681;28;20415;-70
2023/10/21 12:24:45;;;;;;;3.53;0.97;;;26.50;36.70;;;;;;5012716;28;20487;-71
2023/10/21 12:40:32;;;;;;;5.13;1.50;;;22.50;40.80;;;;;;5012150;28;20390;-71
2023/10/21 12:46:14;;;;;;;5.43;1.23;;;23.80;39.60;;;;;;5012501;28;20403;-72
2023/10/21 12:48:33;;;;;;;4.00;1.07;;;23.10;39.50;;;;;;5011746;28;20453;-72
2023/10/21 12:50:58;;;;;;;3.17;1.00;;;22.60;40.40;;;;;;5027340;28;20447;-72
2023/10/21 12:53:25;;;;;;;1.57;0.87;;;23.60;41.70;;;;;;5012362;28;20945;-73
2023/10/21 12:55:51;;;;;;;4.83;1.37;;;25.20;41.50;;;;;;5012148;28;20161;-72
2023/10/21 12:58:16;;;;;;;3.73;1.40;;;26.90;40.00;;;;;;5010662;28;20866;-72
2023/10/21 13:00:43;;;;;;;1.00;0.80;;;27.70;37.90;;;;;;5027057;28;20174;-72
2023/10/21 13:03:10;;;;;;;2.63;1.03;;;28.90;36.40;;;;;;5012028;28;20573;-73
2023/10/21 13:05:37;;;;;;;3.47;1.20;;;29.70;34.80;;;;;;5012055;28;20494;-71
2023/10/21 13:08:07;;;;;;;3.60;1.50;;;29.80;33.30;;;;;;5013632;28;20447;-72
2023/10/21 13:10:33;;;;;;;3.40;1.30;;;28.20;31.80;;;;;;5015867;28;20404;-72
2023/10/21 13:13:01;;;;;;;2.33;1.30;;;27.80;33.20;;;;;;5014680;28;20415;-71
2023/10/21 13:15:26;;;;;;;2.50;1.90;;;27.70;33.80;;;;;;5016015;28;20160;-72
2023/10/21 13:17:52;;;;;;;1.57;1.00;;;26.50;34.30;;;;;;5015688;28;20565;-70
2023/10/21 13:20:18;;;;;;;2.30;1.23;;;25.60;35.70;;;;;;5015621;28;20251;-71
2023/10/21 13:22:44;;;;;;;2.00;1.10;;;24.50;35.70;;;;;;5015776;28;20179;-72
2023/10/21 13:25:10;;;;;;;2.47;1.33;;;23.30;36.70;;;;;;5015732;28;20215;-72
2023/10/21 13:27:36;;;;;;;4.97;1.37;;;23.00;38.20;;;;;;5015861;28;20415;-71
2023/10/21 13:30:10;;;;;;;5.17;1.13;;;22.30;38.80;;;;;;5014224;28;20702;-70
2023/10/21 13:32:37;;;;;;;3.90;1.43;;;21.50;39.40;;;;;;5015452;28;20886;-70